Time;durP1;ratioP1;P1;durP2;ratioP2;P2;SDS_P1;SDS_P2;PMS_P1;PMS_P2;Temp;Humidity;BMP_temperature;BMP_pressure;BME280_temperature;BME280_humidity;BME280_pressure;Samples;Min_cycle;Max_cycle;Signal;HPM_P1;HPM_P2
2020/12/20 00:06:27;;;;;;;70.80;39.90;;;;;;;1.44;89.10;100403.97;517866;1090;65210;-65
2020/12/20 00:16:32;;;;;;;62.33;38.43;;;;;;;1.48;89.71;100403.04;517750;1095;65191;-66
2020/12/20 00:26:44;;;;;;;61.77;38.33;;;;;;;1.49;89.17;100411.67;517047;1095;65246;-66
2020/12/20 00:36:49;;;;;;;67.87;40.23;;;;;;;1.52;89.29;100424.57;516907;1098;65182;-60
2020/12/20 00:46:55;;;;;;;65.40;38.80;;;;;;;1.57;88.97;100412.44;517081;1090;65185;-60
2020/12/20 00:56:59;;;;;;;63.50;36.80;;;;;;;1.62;89.12;100412.38;517842;1090;65313;-60
2020/12/20 01:07:03;;;;;;;63.43;37.50;;;;;;;1.62;89.02;100404.61;517410;1096;65229;-59
2020/12/20 01:17:07;;;;;;;56.30;35.17;;;;;;;1.65;89.19;100414.92;517178;1097;65173;-61
2020/12/20 01:27:15;;;;;;;56.25;34.95;;;;;;;1.70;89.30;100410.52;517069;1090;65236;-61
2020/12/20 01:37:19;;;;;;;57.40;32.70;;;;;;;1.75;89.15;100403.55;517265;1095;65185;-64
2020/12/20 01:47:26;;;;;;;57.07;33.07;;;;;;;1.79;88.85;100397.44;517399;1090;65238;-68
2020/12/20 01:57:37;;;;;;;55.30;32.43;;;;;;;1.85;88.82;100396.49;517355;1095;65530;-71
2020/12/20 02:07:41;;;;;;;55.83;33.27;;;;;;;1.87;88.68;100383.53;518596;1090;65221;-78
2020/12/20 02:17:45;;;;;;;53.87;33.00;;;;;;;1.82;89.29;100374.08;518222;1090;65211;-80
2020/12/20 02:27:54;;;;;;;50.35;32.90;;;;;;;1.79;88.76;100366.37;517113;1097;65232;-76
2020/12/20 02:37:58;;;;;;;55.30;33.00;;;;;;;1.81;88.95;100358.59;517314;1097;65232;-78
2020/12/20 02:48:02;;;;;;;47.50;30.17;;;;;;;1.91;88.94;100351.52;516816;1097;65181;-77
2020/12/20 02:58:11;;;;;;;61.77;35.70;;;;;;;1.98;89.08;100347.95;517447;1096;65258;-78
2020/12/20 03:08:14;;;;;;;48.53;31.33;;;;;;;2.03;88.67;100348.72;517745;1097;65309;-77
2020/12/20 03:18:18;;;;;;;47.80;30.73;;;;;;;2.08;88.71;100365.06;518027;1095;65262;-77
2020/12/20 03:28:31;;;;;;;44.83;27.67;;;;;;;2.13;88.59;100356.34;518101;1095;65229;-77
2020/12/20 03:38:35;;;;;;;34.90;22.20;;;;;;;2.18;88.68;100352.80;517385;1095;65226;-78
2020/12/20 03:48:42;;;;;;;26.95;17.35;;;;;;;2.14;87.96;100348.56;517425;1090;65455;-78
2020/12/20 03:58:50;;;;;;;27.63;17.60;;;;;;;2.20;88.33;100358.80;517787;1095;65534;-77
2020/12/20 04:08:54;;;;;;;23.27;18.27;;;;;;;2.21;88.23;100370.04;517466;1090;65172;-78
2020/12/20 04:18:58;;;;;;;15.77;11.33;;;;;;;2.20;87.88;100363.98;517488;1095;65153;-77
2020/12/20 04:29:07;;;;;;;14.60;10.47;;;;;;;2.19;87.70;100371.77;517968;1095;65259;-78
2020/12/20 04:39:11;;;;;;;18.30;14.17;;;;;;;2.21;87.86;100373.47;517936;1095;65156;-78
2020/12/20 04:49:16;;;;;;;17.67;12.33;;;;;;;2.26;87.56;100375.14;517442;1090;65259;-78
2020/12/20 04:59:27;;;;;;;11.77;9.87;;;;;;;2.28;87.65;100376.80;517812;1095;65159;-77
2020/12/20 05:09:31;;;;;;;15.20;9.25;;;;;;;2.36;87.58;100384.45;517286;1090;65144;-69
2020/12/20 05:19:35;;;;;;;11.83;8.40;;;;;;;2.35;87.02;100385.33;517665;1095;65150;-68
2020/12/20 05:29:50;;;;;;;9.57;8.10;;;;;;;2.33;86.69;100392.28;517584;1095;65162;-68
2020/12/20 05:39:55;;;;;;;9.30;7.70;;;;;;;2.36;87.07;100390.50;517812;1097;65527;-69
2020/12/20 05:50:00;;;;;;;10.67;8.77;;;;;;;2.55;86.50;100387.59;517373;1095;65587;-68
2020/12/20 06:00:08;;;;;;;10.90;8.47;;;;;;;2.65;86.31;100393.45;517357;1096;65681;-68
2020/12/20 06:10:14;;;;;;;10.33;9.33;;;;;;;2.72;86.13;100399.37;517705;1096;65485;-68
2020/12/20 06:20:29;;;;;;;13.03;10.70;;;;;;;2.79;86.26;100412.20;517746;1095;65165;-68
2020/12/20 06:30:33;;;;;;;17.60;14.43;;;;;;;2.74;85.99;100402.80;517948;1095;65572;-69
2020/12/20 06:40:45;;;;;;;32.20;21.40;;;;;;;2.46;86.33;100408.49;518121;1095;65547;-69
2020/12/20 06:50:50;;;;;;;38.95;24.55;;;;;;;2.30;86.64;100426.03;517849;1095;65151;-68
2020/12/20 07:00:55;;;;;;;47.93;30.53;;;;;;;2.17;86.74;100431.42;517478;1095;65162;-69
2020/12/20 07:11:00;;;;;;;47.83;29.70;;;;;;;2.04;86.89;100438.52;517546;1095;65198;-67
2020/12/20 07:21:04;;;;;;;46.15;27.90;;;;;;;1.91;86.81;100450.81;518009;1095;65226;-68
2020/12/20 07:31:20;;;;;;;48.63;29.83;;;;;;;1.84;86.83;100461.25;517656;1090;65182;-69
2020/12/20 07:41:25;;;;;;;50.70;32.20;;;;;;;1.84;87.15;100451.77;518230;1095;65191;-68
2020/12/20 07:51:29;;;;;;;48.13;31.13;;;;;;;1.91;87.01;100452.53;517380;1097;65159;-68
2020/12/20 08:01:35;;;;;;;56.87;33.23;;;;;;;2.00;87.05;100454.13;517517;1095;65160;-68
2020/12/20 08:11:39;;;;;;;49.40;29.13;;;;;;;2.09;87.10;100461.77;517910;1095;65240;-67
2020/12/20 08:21:57;;;;;;;46.87;30.03;;;;;;;2.20;87.18;100467.64;517820;1095;65202;-68
2020/12/20 08:32:11;;;;;;;51.35;29.00;;;;;;;2.21;86.71;100471.94;517669;1095;65209;-69
2020/12/20 08:42:17;;;;;;;48.90;29.67;;;;;;;2.31;86.58;100482.17;517645;1097;65256;-68
2020/12/20 08:52:21;;;;;;;53.07;30.23;;;;;;;2.44;86.47;100486.28;518201;1095;65238;-67
2020/12/20 09:02:26;;;;;;;61.57;32.37;;;;;;;2.46;86.47;100492.28;517939;1095;65475;-69
2020/12/20 09:12:30;;;;;;;48.67;26.77;;;;;;;2.44;86.54;100486.28;517635;1095;65172;-69
2020/12/20 09:22:52;;;;;;;61.57;31.67;;;;;;;2.50;86.47;100488.78;517644;1095;65530;-69
2020/12/20 09:32:56;;;;;;;68.70;34.37;;;;;;;2.67;86.55;100487.63;517726;1095;65192;-69
2020/12/20 09:43:00;;;;;;;56.17;34.47;;;;;;;2.85;86.22;100480.44;517717;1095;65521;-68
2020/12/20 09:53:04;;;;;;;55.83;28.87;;;;;;;2.94;85.99;100490.62;517690;1095;65253;-67
2020/12/20 10:03:09;;;;;;;53.87;32.27;;;;;;;2.89;85.23;100484.67;517698;1095;65240;-69
2020/12/20 10:13:13;;;;;;;52.50;30.93;;;;;;;2.84;85.99;100482.16;518069;1090;65256;-70
2020/12/20 10:23:17;;;;;;;50.60;28.33;;;;;;;2.91;85.67;100481.17;517152;1095;65411;-71
2020/12/20 10:33:21;;;;;;;53.63;29.33;;;;;;;3.10;85.57;100472.20;517647;1095;65614;-68
2020/12/20 10:43:27;;;;;;;49.03;28.93;;;;;;;3.25;85.84;100464.10;517156;1096;65614;-63
2020/12/20 10:53:31;;;;;;;44.83;27.83;;;;;;;3.42;85.33;100461.17;517353;1095;65194;-62
2020/12/20 11:03:35;;;;;;;47.23;27.93;;;;;;;3.46;85.13;100460.23;517121;1090;65252;-63
2020/12/20 11:13:42;;;;;;;50.57;29.03;;;;;;;3.46;84.93;100464.56;517457;1090;65306;-61
2020/12/20 11:23:47;;;;;;;48.42;28.20;;;;;;;3.42;85.08;100471.55;509034;1095;10001987;-62
2020/12/20 11:33:52;;;;;;;44.37;28.80;;;;;;;3.53;85.58;100468.75;516913;1090;65179;-62
2020/12/20 11:43:56;;;;;;;44.27;29.73;;;;;;;3.54;85.10;100479.98;516526;1096;65298;-62
2020/12/20 11:54:00;;;;;;;44.67;26.37;;;;;;;3.57;84.50;100460.00;516734;1090;65252;-62
2020/12/20 12:04:04;;;;;;;45.45;27.90;;;;;;;3.55;84.33;100451.39;517020;1096;65156;-62
2020/12/20 12:14:08;;;;;;;47.03;29.10;;;;;;;3.57;84.34;100451.34;516360;1095;65246;-63
2020/12/20 12:24:12;;;;;;;44.80;27.60;;;;;;;3.62;84.63;100450.36;516659;1096;65162;-62
2020/12/20 12:34:16;;;;;;;41.33;25.80;;;;;;;3.58;84.47;100443.53;516638;1090;65397;-61
2020/12/20 12:44:20;;;;;;;39.73;25.40;;;;;;;3.60;84.84;100443.50;516361;1097;65267;-62
2020/12/20 12:54:24;;;;;;;35.93;24.23;;;;;;;3.62;84.27;100455.55;516646;1097;65156;-61
2020/12/20 13:04:35;;;;;;;35.37;23.43;;;;;;;3.69;84.61;100450.23;516502;1097;65156;-63
2020/12/20 13:14:39;;;;;;;37.07;24.73;;;;;;;3.70;84.62;100449.34;516652;1090;65255;-63
2020/12/20 13:24:43;;;;;;;39.17;25.60;;;;;;;3.62;84.54;100441.72;516800;1090;65173;-61
2020/12/20 13:34:52;;;;;;;45.00;26.40;;;;;;;3.52;84.54;100453.19;516429;1095;65576;-63
2020/12/20 13:44:56;;;;;;;40.90;28.57;;;;;;;3.32;84.51;100462.23;517512;1095;65178;-62
2020/12/20 13:55:00;;;;;;;45.97;27.40;;;;;;;3.12;84.42;100460.04;516493;1095;65166;-63
2020/12/20 14:05:04;;;;;;;47.50;29.30;;;;;;;3.04;84.63;100461.03;530014;1090;65150;-61
2020/12/20 14:15:08;;;;;;;42.50;26.63;;;;;;;2.93;84.56;100457.78;516507;1095;65178;-63
2020/12/20 14:25:12;;;;;;;39.97;27.00;;;;;;;2.84;84.49;100448.44;516533;1090;65222;-62
2020/12/20 14:35:21;;;;;;;42.37;27.07;;;;;;;2.74;84.50;100452.08;516962;1095;65271;-62
2020/12/20 14:45:25;;;;;;;41.37;27.00;;;;;;;2.61;85.10;100459.23;522525;1090;65160;-63
2020/12/20 14:55:29;;;;;;;47.97;33.30;;;;;;;2.57;85.45;100460.14;517388;1095;65220;-63
2020/12/20 15:05:37;;;;;;;41.20;28.03;;;;;;;2.56;85.40;100471.40;516526;1090;65672;-63
2020/12/20 15:15:41;;;;;;;41.33;28.80;;;;;;;2.48;84.90;100454.26;517773;1090;65154;-63
2020/12/20 15:25:45;;;;;;;43.45;28.45;;;;;;;2.49;85.45;100462.88;517541;1095;65190;-64
2020/12/20 15:35:54;;;;;;;48.10;28.20;;;;;;;2.46;85.02;100448.22;517603;1095;65201;-62
2020/12/20 15:45:58;;;;;;;46.00;28.90;;;;;;;2.47;85.26;100444.73;516942;1090;65256;-63
2020/12/20 15:56:03;;;;;;;51.47;31.13;;;;;;;2.37;85.46;100443.20;517296;1096;65201;-63
2020/12/20 16:06:10;;;;;;;50.43;30.37;;;;;;;2.19;85.45;100429.66;517610;1096;65157;-62
2020/12/20 16:16:20;;;;;;;48.40;28.73;;;;;;;2.01;85.27;100430.80;517485;1095;65181;-63
2020/12/20 16:26:44;;;;;;;56.47;34.73;;;;;;;1.75;85.86;100439.81;517502;1095;65157;-62
2020/12/20 16:36:49;;;;;;;55.87;30.27;;;;;;;1.59;85.89;100440.87;517474;1095;65144;-62
2020/12/20 16:46:57;;;;;;;51.30;27.40;;;;;;;1.44;85.71;100445.38;517120;1098;65179;-63
2020/12/20 16:57:01;;;;;;;46.13;23.07;;;;;;;1.16;85.80;100470.73;517595;1095;65182;-63
2020/12/20 17:07:07;;;;;;;41.95;23.98;;;;;;;0.84;86.28;100486.55;508468;1090;10000980;-62
2020/12/20 17:17:15;;;;;;;45.27;25.57;;;;;;;0.62;86.29;100472.98;516722;1095;65201;-62
2020/12/20 17:27:24;;;;;;;50.63;25.83;;;;;;;0.44;86.32;100467.95;516777;1095;65170;-63
2020/12/20 17:37:33;;;;;;;45.73;26.57;;;;;;;0.34;86.44;100460.27;516848;1096;65226;-62
2020/12/20 17:47:44;;;;;;;43.93;24.53;;;;;;;0.12;87.03;100457.87;516380;1090;65208;-62
2020/12/20 17:57:53;;;;;;;42.93;22.30;;;;;;;-0.05;87.41;100457.98;516998;1095;65433;-62
2020/12/20 18:07:57;;;;;;;43.10;23.00;;;;;;;-0.39;86.29;100467.62;516730;1097;65346;-62
2020/12/20 18:18:01;;;;;;;39.03;22.80;;;;;;;-0.57;87.00;100461.69;517292;1096;65373;-62
2020/12/20 18:28:06;;;;;;;41.65;22.80;;;;;;;-0.66;87.06;100449.66;516759;1095;65181;-62
2020/12/20 18:38:10;;;;;;;35.27;21.57;;;;;;;-0.69;87.54;100448.81;516261;1095;65896;-63
2020/12/20 18:48:16;;;;;;;45.20;23.60;;;;;;;-0.73;87.43;100464.31;517273;1095;65245;-61
2020/12/20 18:58:20;;;;;;;40.53;24.77;;;;;;;-0.83;86.96;100461.78;516376;1095;65181;-61
2020/12/20 19:08:25;;;;;;;31.77;19.90;;;;;;;-0.88;87.71;100469.52;516323;1097;65364;-62
2020/12/20 19:18:49;;;;;;;36.63;22.10;;;;;;;-0.75;87.77;100490.96;516840;1095;65514;-62
2020/12/20 19:28:53;;;;;;;38.03;20.87;;;;;;;-0.72;87.26;100499.55;516840;1090;65168;-64
2020/12/20 19:38:57;;;;;;;37.43;21.60;;;;;;;-0.71;87.59;100480.63;516669;1097;65491;-64
2020/12/20 19:49:05;;;;;;;35.90;20.90;;;;;;;-0.67;87.21;100488.38;516849;1095;65301;-63
2020/12/20 19:59:10;;;;;;;33.50;20.77;;;;;;;-0.60;87.53;100488.35;516617;1090;65268;-62
2020/12/20 20:09:14;;;;;;;36.60;21.03;;;;;;;-0.55;88.11;100498.66;517320;1090;65185;-62
2020/12/20 20:19:18;;;;;;;36.00;20.80;;;;;;;-0.50;88.05;100504.64;516878;1098;65255;-62
2020/12/20 20:29:22;;;;;;;37.20;21.20;;;;;;;-0.45;87.28;100499.47;517548;1095;65157;-63
2020/12/20 20:39:27;;;;;;;39.90;24.05;;;;;;;-0.43;87.43;100506.34;516715;1096;65188;-65
2020/12/20 20:49:31;;;;;;;33.53;20.40;;;;;;;-0.39;87.98;100499.46;517254;1095;65302;-67
2020/12/20 20:59:35;;;;;;;41.10;22.70;;;;;;;-0.34;87.07;100507.19;516447;1090;65176;-66
2020/12/20 21:09:39;;;;;;;36.47;20.13;;;;;;;-0.30;87.41;100509.72;516641;1090;65520;-66
2020/12/20 21:19:43;;;;;;;48.57;22.97;;;;;;;-0.32;87.70;100495.97;517147;1095;65236;-66
2020/12/20 21:29:50;;;;;;;35.13;22.27;;;;;;;-0.29;88.12;100495.11;516689;1090;65558;-66
2020/12/20 21:39:55;;;;;;;39.80;25.80;;;;;;;-0.26;87.47;100515.73;516418;1096;65240;-66
2020/12/20 21:49:59;;;;;;;36.93;20.57;;;;;;;-0.42;87.77;100496.87;517051;1095;65155;-66
2020/12/20 22:00:07;;;;;;;42.63;23.37;;;;;;;-0.44;87.75;100509.80;517346;1097;65296;-66
2020/12/20 22:10:11;;;;;;;44.45;22.00;;;;;;;-0.39;87.92;100519.23;517255;1095;65489;-66
2020/12/20 22:20:16;;;;;;;38.47;22.83;;;;;;;-0.36;87.46;100522.66;516890;1090;65176;-68
2020/12/20 22:30:20;;;;;;;38.40;23.43;;;;;;;-0.45;87.63;100509.80;517089;1090;65490;-64
2020/12/20 22:40:25;;;;;;;37.90;20.27;;;;;;;-0.47;88.44;100507.20;517106;1095;65289;-65
2020/12/20 22:50:29;;;;;;;39.17;20.30;;;;;;;-0.40;87.83;100507.20;517427;1095;65533;-65
2020/12/20 23:00:33;;;;;;;41.77;21.33;;;;;;;-0.34;88.57;100489.12;517173;1090;65201;-66
2020/12/20 23:10:37;;;;;;;41.63;22.73;;;;;;;-0.37;88.62;100478.78;516897;1095;65150;-66
2020/12/20 23:20:41;;;;;;;38.70;24.67;;;;;;;-0.39;88.11;100465.91;517149;1090;65223;-66
2020/12/20 23:30:45;;;;;;;41.73;22.83;;;;;;;-0.33;88.35;100457.28;516335;1095;65221;-66
2020/12/20 23:40:49;;;;;;;45.00;23.90;;;;;;;-0.31;88.54;100447.80;508070;1095;10001675;-67
2020/12/20 23:50:53;;;;;;;41.10;21.50;;;;;;;-0.29;88.33;100456.39;517261;1095;65256;-66
